AirNav  
 
 1014 users online  

13CL Maine Prairie Airport
Dixon, California, USA

GOING TO DIXON?


FAA INFORMATION EFFECTIVE 01 FEBRUARY 2018

Location

FAA Identifier: 13CL
Lat/Long: 38-22-52.6760N / 121-49-24.8610W
38-22.877933N / 121-49.414350W
38.3812989 / -121.8235725
(estimated)
Elevation: 40 ft. / 12 m (estimated)
Variation: 16E (1985)
From city: 3 miles S of DIXON, CA
Time zone: UTC -8 (UTC -7 during Daylight Saving Time)
Zip code: 95620

Airport Operations

Airport use: Private use. Permission required prior to landing
Activation date: 04/1965
Control tower: no
ARTCC: OAKLAND CENTER
FSS: RANCHO MURIETA FLIGHT SERVICE STATION
Attendance: CONTINUOUS
Pattern altitude: 840 ft. MSL
Wind indicator: yes
Segmented circle: no

Airport Communications

WX ASOS at VCB (6 nm W): 134.75 (707-448-1594)
WX AWOS-3 at EDU (9 nm N): 119.025 (530-754-6839)
WX AWOS-3 at DWA (12 nm N): 125.775 (530-750-2759)
WX AWOS-AV at O88 (13 nm SE): 127.075 (707-374-5396)
WX ASOS at SAC (17 nm NE): PHONE 916-421-0923

Nearby radio navigation aids

VOR radial/distance  VOR name  Freq  Var
SACr237/13.3SACRAMENTO VORTAC115.2017E
CCRr010/22.7CONCORD VOR/DME117.0017E
MCCr212/26.1MC CLELLAN VOR/DME109.2017E
SGDr048/28.6SCAGGS ISLAND VORTAC112.1017E

Airport Services

Parking: hangars
Airframe service: NONE
Powerplant service: NONE
Bottled oxygen: NONE
Bulk oxygen: NONE

Runway Information

Runway 16/34

Dimensions: 1950 x 50 ft. / 594 x 15 m
Surface: gravel
Runway edge markings: RWY 16 MKD WITH X AND WHITE PAINTED TIRES; RWY 34 APCH END HAS EDGE MARKERS AND WHITE PAINTED TIRES.
RUNWAY 16  RUNWAY 34
Gradient: 0.1%0.1%
Traffic pattern: rightleft
Runway end identifier lights: nono

Airport Ownership and Management from official FAA records

Ownership: Privately-owned
Owner: CHIALO PROPERTIES
2880 TENNANT AVE
MORGAN HILL, CA 95037
Phone 916-678-2038
Manager: W D JOSUN
P O BOX 609
DIXON, CA 95620
Phone 916-678-2038

Airport Operational Statistics

Aircraft based on the field: 9
Single engine airplanes: 9
    
Aircraft operations: avg 277/day *
99% local general aviation
1% transient general aviation
* for 12-month period ending 24 January 1979

Additional Remarks

ONLY AGRICULTURE AIRCRAFT BASED AT ARPT.
A103 AGRICULTURE AIRCRAFT OPNS.

Instrument Procedures

There are no published instrument procedures at 13CL.

Some nearby airports with instrument procedures:

KVCB - Nut Tree Airport (6 nm W)
KSUU - Travis Air Force Base (8 nm SW)
KEDU - University Airport (9 nm N)
KDWA - Yolo County Airport (12 nm N)
O88 - Rio Vista Municipal Airport (13 nm SE)
KSAC - Sacramento Executive Airport (17 nm NE)
O41 - Watts-Woodland Airport (18 nm N)
 
Loc | Ops | Rwys | IFR | FBO | Links
Com | Nav | Svcs | Stats | Notes

Sonoma Jet Center
 
Area around 13CL (Maine Prairie Airport)
 
Road maps at: MapQuest Bing Google
 
Aerial photo
No photo
 
Sectional chart

 
Airport distance calculator
Flying to Maine Prairie Airport? Find the distance to fly.

From to 13CL

Sunrise and sunset
Times for 20-Feb-2018
 Local
(UTC-8)
 Zulu
(UTC)
Morning civil twilight06:2614:26
Sunrise06:5214:52
Sunset17:5001:50
Evening civil twilight18:1702:17

Current date and time
Zulu (UTC)  21-Feb-2018 01:46:21
Local (UTC-8)  20-Feb-2018 17:46:21
 
METAR
KVCB 
6nm W 
210053Z AUTO 19003KT 10SM CLR 11/M07 A3018 RMK AO2 SLP221 T01061072 $
KSUU 
8nm SW 
210056Z AUTO 00000KT 10SM FEW100 10/M05 A3016 RMK AO2 SLP221 T00971054 CHINO RWY03R $
KEDU 
9nm N 
202125Z AUTO 00000KT 10SM CLR 09/M08 A3021 RMK AO1
KSAC 
17nm NE 
210053Z 00000KT 10SM FEW120 11/M07 A3018 RMK AO2 SLP220 T01061067
TAF
KSUU 
8nm SW 
201902Z 2019/2201 35006KT 9999 BKN150 QNH3022INS BECMG 2020/2021 24009KT 9999 SCT100 BKN150 QNH3019INS BECMG 2103/2104 23006KT 9999 SCT120 QNH3019INS BECMG 2111/2112 02009KT 9999 BKN030 QNH3021INS BECMG 2117/2118 03009KT 9999 SCT060 BKN090 QNH3017INS TX10/2022Z TNM01/2112Z
KSAC 
17nm NE 
201724Z 2018/2118 31004KT P6SM BKN150 FM210300 VRB03KT P6SM BKN250 FM211400 34003KT P6SM SCT250
NOTAMs
Click for the latest NOTAMs
NOTAMs are issued by the DoD/FAA and will open in a separate window not controlled by AirNav.

 

 
 

Would you like to see your business listed on this page?

 If your business provides an interesting product or service to pilots, flight crews, aircraft, or users of the Maine Prairie Airport, you should consider listing it here.  To start the listing process, click on the button below
 
Add a business
 

Other Pages about Maine Prairie Airport

Update a link
 
Copyright © AirNav, LLC. All rights reserved. Privacy Policy  Contact